Time;durP1;ratioP1;P1;durP2;ratioP2;P2;SDS_P1;SDS_P2;PMS_P1;PMS_P2;Temp;Humidity;BMP_temperature;BMP_pressure;BME280_temperature;BME280_humidity;BME280_pressure;Samples;Min_cycle;Max_cycle;Signal;HPM_P1;HPM_P2
2023/08/13 00:00:16;;;;;;;2.25;1.35;;;;;;;18.80;100.00;98063.13;1221271;75;2934762;-67
2023/08/13 00:02:48;;;;;;;2.40;1.30;;;;;;;18.46;100.00;98069.00;1222217;75;2925084;-68
2023/08/13 00:05:21;;;;;;;1.70;1.50;;;;;;;18.69;100.00;98063.97;1219291;75;3119920;-67
2023/08/13 00:07:54;;;;;;;2.05;1.70;;;;;;;18.51;100.00;98061.91;1221926;75;2926203;-67
2023/08/13 00:10:26;;;;;;;2.65;2.20;;;;;;;18.17;100.00;98055.94;1224260;75;2916561;-68
2023/08/13 00:13:02;;;;;;;3.25;2.00;;;;;;;18.38;100.00;98056.25;1221150;75;2937871;-67
2023/08/13 00:15:34;;;;;;;2.60;1.90;;;;;;;18.31;100.00;98050.00;1222281;75;2923571;-70
2023/08/13 00:18:10;;;;;;;2.45;1.95;;;;;;;18.58;100.00;98047.47;1221757;75;2935793;-68
2023/08/13 00:20:43;;;;;;;1.80;1.50;;;;;;;18.62;100.00;98052.72;1223238;75;2924397;-68
2023/08/13 00:23:15;;;;;;;1.30;1.20;;;;;;;18.58;100.00;98055.78;1222021;75;2927652;-69
2023/08/13 00:25:48;;;;;;;1.50;1.25;;;;;;;18.61;100.00;98053.97;1223365;75;2920735;-68
2023/08/13 00:28:23;;;;;;;1.50;1.20;;;;;;;18.55;100.00;98058.84;1221802;75;2934242;-69
2023/08/13 00:30:57;;;;;;;1.15;1.00;;;;;;;18.40;100.00;98057.25;1222949;75;2921479;-66
2023/08/13 00:33:30;;;;;;;1.45;1.35;;;;;;;18.33;100.00;98057.81;1220743;75;2929086;-67
2023/08/13 00:36:02;;;;;;;2.90;2.10;;;;;;;18.05;100.00;98050.50;1222787;75;2923998;-68
2023/08/13 00:38:35;;;;;;;2.00;1.80;;;;;;;18.25;100.00;98054.09;1221430;75;2923010;-67
2023/08/13 00:41:07;;;;;;;1.60;1.50;;;;;;;18.34;100.00;98061.31;1223647;75;2931204;-67
2023/08/13 00:43:43;;;;;;;1.70;1.60;;;;;;;18.42;100.00;98053.94;1220933;75;2926866;-67
2023/08/13 00:46:16;;;;;;;2.00;1.40;;;;;;;18.45;100.00;98053.66;1223707;75;2931122;-68
2023/08/13 00:48:50;;;;;;;1.90;1.30;;;;;;;18.39;100.00;98055.72;1221814;75;2946752;-68
2023/08/13 00:51:23;;;;;;;1.70;1.40;;;;;;;18.33;100.00;98059.81;1223525;75;2925089;-67
2023/08/13 00:53:56;;;;;;;1.35;1.25;;;;;;;18.37;100.00;98066.56;1221381;75;2943068;-69
2023/08/13 00:56:29;;;;;;;1.50;1.10;;;;;;;18.39;100.00;98055.72;1223278;75;2921220;-66
2023/08/13 00:59:04;;;;;;;1.25;1.15;;;;;;;18.39;100.00;98061.25;1222149;75;2920754;-66
2023/08/13 01:01:37;;;;;;;1.40;1.20;;;;;;;18.02;100.00;98056.34;1222963;75;2923105;-68
2023/08/13 01:04:10;;;;;;;1.70;1.55;;;;;;;18.01;100.00;98061.09;1221476;75;2943462;-66
2023/08/13 01:06:50;;;;;;;1.90;1.60;;;;;;;18.08;100.00;98054.25;1223250;75;2925544;-67
2023/08/13 01:09:37;;;;;;;2.85;2.10;;;;;;;18.02;100.00;98057.06;1221540;75;2932802;-68
2023/08/13 01:12:22;;;;;;;1.50;1.40;;;;;;;18.18;100.00;98054.66;1222208;75;2923867;-66
2023/08/13 01:15:08;;;;;;;1.40;1.30;;;;;;;18.20;100.00;98054.91;1220764;75;2927864;-67
2023/08/13 01:17:43;;;;;;;1.50;1.20;;;;;;;18.25;100.00;98059.63;1223110;75;2923037;-67
2023/08/13 01:20:18;;;;;;;1.40;1.30;;;;;;;18.15;100.00;98053.69;1221392;75;2926087;-69
2023/08/13 01:22:53;;;;;;;1.75;1.15;;;;;;;18.19;100.00;98058.94;1222677;75;2928509;-67
2023/08/13 01:25:28;;;;;;;1.40;1.15;;;;;;;18.19;100.00;98045.09;1221158;75;2927401;-67
2023/08/13 01:28:09;;;;;;;1.30;1.15;;;;;;;18.12;100.00;98045.66;1222781;75;2924786;-67
2023/08/13 01:30:47;;;;;;;1.35;1.25;;;;;;;17.93;100.00;98045.56;1220644;75;2931998;-67
2023/08/13 01:33:26;;;;;;;;;;;;;;;18.01;100.00;98038.19;1222917;75;2926001;-69
2023/08/13 01:36:04;;;;;;;1.50;1.40;;;;;;;18.07;100.00;98045.19;1220862;75;2938431;-68
2023/08/13 01:38:40;;;;;;;1.30;1.20;;;;;;;18.01;100.00;98033.41;1224106;75;2928410;-68
2023/08/13 01:41:13;;;;;;;1.45;1.15;;;;;;;18.05;100.00;98042.19;1220678;75;2924946;-68
2023/08/13 01:43:45;;;;;;;1.45;1.30;;;;;;;17.79;100.00;98039.84;1221347;75;2924327;-69
2023/08/13 01:46:18;;;;;;;5.20;2.00;;;;;;;17.69;100.00;98041.44;1218695;75;2929425;-68
2023/08/13 01:48:51;;;;;;;1.60;1.50;;;;;;;17.87;100.00;98042.84;1222909;75;2920751;-68
2023/08/13 01:51:24;;;;;;;1.80;1.55;;;;;;;17.89;100.00;98040.31;1222015;75;2928178;-69
2023/08/13 01:53:59;;;;;;;1.70;1.40;;;;;;;17.90;100.00;98039.06;1222863;75;2929306;-69
2023/08/13 01:56:32;;;;;;;1.50;1.40;;;;;;;17.95;100.00;98037.50;1222922;75;2923191;-68
2023/08/13 01:59:04;;;;;;;1.30;1.20;;;;;;;17.82;100.00;98041.63;1221523;75;2929250;-69
2023/08/13 02:01:37;;;;;;;2.00;1.30;;;;;;;17.93;100.00;98040.78;1219705;75;2945815;-66
2023/08/13 02:04:10;;;;;;;1.90;1.30;;;;;;;17.98;100.00;98039.97;1221846;75;2925537;-67
2023/08/13 02:06:42;;;;;;;1.45;1.10;;;;;;;17.94;100.00;98033.22;1223086;75;2925502;-67
2023/08/13 02:09:18;;;;;;;1.30;1.20;;;;;;;17.76;100.00;98035.34;1222335;75;2928869;-69
2023/08/13 02:11:50;;;;;;;2.05;1.45;;;;;;;17.64;100.00;98028.41;1221819;75;2930582;-70
2023/08/13 02:14:24;;;;;;;1.60;1.50;;;;;;;17.66;100.00;98039.72;1222763;75;2921808;-66
2023/08/13 02:16:57;;;;;;;1.45;1.35;;;;;;;17.78;100.00;98038.38;1221191;75;2934558;-67
2023/08/13 02:19:29;;;;;;;1.60;1.45;;;;;;;17.76;100.00;98027.03;1222192;75;2930155;-66
2023/08/13 02:22:02;;;;;;;1.55;1.45;;;;;;;17.62;100.00;98023.38;1222100;75;2891557;-66
2023/08/13 02:24:37;;;;;;;2.10;1.50;;;;;;;17.56;100.00;98024.69;1222170;75;2927041;-67
2023/08/13 02:27:10;;;;;;;1.40;1.30;;;;;;;17.74;100.00;98032.34;1222007;75;2930262;-68
2023/08/13 02:29:43;;;;;;;1.30;1.20;;;;;;;17.72;100.00;98036.91;1223188;75;2931173;-67
2023/08/13 02:32:15;;;;;;;2.05;1.50;;;;;;;17.50;100.00;98035.03;1220521;75;2922097;-67
2023/08/13 02:34:49;;;;;;;2.25;1.90;;;;;;;17.39;100.00;98028.31;1222764;75;2939473;-68
2023/08/13 02:37:22;;;;;;;2.40;2.00;;;;;;;17.53;100.00;98034.75;1223312;75;2875159;-66
2023/08/13 02:39:57;;;;;;;1.70;1.60;;;;;;;17.66;100.00;98036.94;1223420;75;2928181;-65
2023/08/13 02:42:30;;;;;;;1.75;1.65;;;;;;;17.47;100.00;98031.28;1222696;75;2925426;-68
2023/08/13 02:45:03;;;;;;;1.70;1.50;;;;;;;17.50;100.00;98033.03;1221418;75;2919421;-65
2023/08/13 02:47:35;;;;;;;1.70;1.40;;;;;;;17.48;100.00;98035.56;1222689;75;2923533;-68
2023/08/13 02:50:10;;;;;;;1.90;1.45;;;;;;;17.35;100.00;98027.84;1222703;75;2937909;-69
2023/08/13 02:52:42;;;;;;;2.40;1.95;;;;;;;17.13;100.00;98033.53;1223983;75;2924232;-67
2023/08/13 02:55:18;;;;;;;2.25;1.90;;;;;;;17.39;100.00;98035.84;1222123;75;2921570;-67
2023/08/13 02:57:50;;;;;;;1.60;1.50;;;;;;;17.50;100.00;98040.59;1223363;75;2927346;-67
2023/08/13 03:00:23;;;;;;;2.20;1.65;;;;;;;17.24;100.00;98041.75;1221552;75;2928495;-68
2023/08/13 03:02:56;;;;;;;1.70;1.60;;;;;;;17.07;100.00;98036.28;1222647;75;2925909;-68
2023/08/13 03:05:30;;;;;;;2.30;2.10;;;;;;;17.14;100.00;98032.25;1222248;75;2924062;-69
2023/08/13 03:08:03;;;;;;;2.55;1.75;;;;;;;17.20;100.00;98038.50;1222434;75;3031238;-67
2023/08/13 03:10:39;;;;;;;1.95;1.75;;;;;;;17.37;100.00;98035.63;1221640;75;2933863;-68
2023/08/13 03:13:11;;;;;;;1.55;1.45;;;;;;;17.37;100.00;98038.41;1223257;75;2925835;-70
2023/08/13 03:15:44;;;;;;;1.60;1.50;;;;;;;17.38;100.00;98039.91;1221038;75;2926553;-66
2023/08/13 03:18:17;;;;;;;1.50;1.30;;;;;;;17.34;100.00;98034.66;1223675;75;2926634;-69
2023/08/13 03:20:50;;;;;;;1.40;1.30;;;;;;;17.32;100.00;98034.41;1222426;75;2927699;-68
2023/08/13 03:23:22;;;;;;;2.85;1.40;;;;;;;17.35;100.00;98035.41;1223610;75;2937041;-68
2023/08/13 03:25:58;;;;;;;2.05;1.40;;;;;;;17.28;100.00;98033.19;1219809;75;2940500;-65
2023/08/13 03:28:30;;;;;;;1.50;1.40;;;;;;;17.16;100.00;98040.78;1223941;75;2924196;-69
2023/08/13 03:31:03;;;;;;;1.40;1.30;;;;;;;17.25;100.00;98027.41;1221013;75;2919077;-69
2023/08/13 03:33:36;;;;;;;1.40;1.30;;;;;;;17.29;100.00;98034.66;1224399;75;2921823;-70
2023/08/13 03:36:09;;;;;;;1.50;1.35;;;;;;;17.02;100.00;98035.06;1221749;75;2929431;-68
2023/08/13 03:38:41;;;;;;;1.45;1.35;;;;;;;17.14;100.00;98033.00;1223774;75;2922631;-68
2023/08/13 03:41:17;;;;;;;1.70;1.45;;;;;;;17.06;100.00;98032.03;1221471;75;2930934;-67
2023/08/13 03:43:49;;;;;;;2.80;1.30;;;;;;;17.12;100.00;98034.75;1222710;75;2917033;-67
2023/08/13 03:46:22;;;;;;;1.50;1.40;;;;;;;17.19;100.00;98039.75;1221878;75;2925429;-67
2023/08/13 03:48:55;;;;;;;2.40;1.45;;;;;;;17.13;100.00;98037.03;1223993;75;2930295;-67
2023/08/13 03:51:27;;;;;;;1.25;1.10;;;;;;;17.14;100.00;98038.53;1222303;75;2922582;-66
2023/08/13 03:54:00;;;;;;;1.50;1.20;;;;;;;17.00;100.00;98039.59;1222460;75;2929071;-67
2023/08/13 03:56:35;;;;;;;1.95;1.20;;;;;;;17.13;100.00;98036.28;1221216;75;2931183;-67
2023/08/13 03:59:08;;;;;;;1.50;1.40;;;;;;;17.15;100.00;98039.25;1223896;75;2924951;-69
2023/08/13 04:01:40;;;;;;;1.35;1.25;;;;;;;17.13;100.00;98037.03;1222549;75;2923175;-67
2023/08/13 04:04:13;;;;;;;1.15;1.05;;;;;;;17.09;100.00;98033.03;1223924;75;2923050;-69
2023/08/13 04:06:45;;;;;;;1.30;1.20;;;;;;;17.10;100.00;98042.81;1221625;75;2924073;-69
2023/08/13 04:09:18;;;;;;;1.10;1.00;;;;;;;17.16;100.00;98047.06;1224076;75;2928024;-68
2023/08/13 04:11:53;;;;;;;1.30;1.20;;;;;;;17.18;100.00;98039.00;1222407;75;2917631;-67
2023/08/13 04:14:26;;;;;;;1.60;1.35;;;;;;;17.19;100.00;98040.50;1223654;75;2923858;-69
2023/08/13 04:16:58;;;;;;;1.35;1.20;;;;;;;17.22;100.00;98050.56;1221771;75;2928463;-69
2023/08/13 04:19:31;;;;;;;1.55;1.35;;;;;;;17.10;100.00;98048.34;1223832;75;2922790;-68
2023/08/13 04:22:04;;;;;;;1.70;1.30;;;;;;;17.12;100.00;98049.34;1219539;75;2920442;-68
2023/08/13 04:24:36;;;;;;;1.30;1.20;;;;;;;17.17;100.00;98045.03;1223071;75;2928822;-65
2023/08/13 04:27:12;;;;;;;1.55;1.40;;;;;;;17.08;100.00;98053.63;1221911;75;2924047;-68
2023/08/13 04:29:44;;;;;;;2.30;1.80;;;;;;;17.01;100.00;98054.94;1223647;75;2920897;-66
2023/08/13 04:32:17;;;;;;;1.90;1.75;;;;;;;17.15;100.00;98067.72;1220405;75;2922437;-67
2023/08/13 04:34:50;;;;;;;2.00;1.80;;;;;;;17.13;100.00;98063.94;1223297;75;2908329;-68
2023/08/13 04:37:22;;;;;;;1.90;1.50;;;;;;;17.29;100.00;98060.31;1223164;75;2935555;-68
2023/08/13 04:39:55;;;;;;;2.00;1.80;;;;;;;17.25;100.00;98063.38;1223094;75;2922785;-67
2023/08/13 04:42:31;;;;;;;1.85;1.65;;;;;;;17.36;100.00;98057.00;1221040;75;2950119;-67
2023/08/13 04:45:03;;;;;;;3.00;1.70;;;;;;;17.22;100.00;98064.41;1222258;75;2921937;-67
2023/08/13 04:47:36;;;;;;;1.60;1.50;;;;;;;17.32;100.00;98056.56;1223106;75;2922593;-70
2023/08/13 04:50:10;;;;;;;1.90;1.75;;;;;;;17.50;100.00;98059.97;1222425;75;2922826;-68
2023/08/13 04:52:43;;;;;;;1.65;1.55;;;;;;;17.55;100.00;98059.16;1222598;75;2935630;-68
2023/08/13 04:55:16;;;;;;;1.40;1.20;;;;;;;17.63;100.00;98060.09;1222291;67;2924209;-67
2023/08/13 04:57:51;;;;;;;1.60;1.40;;;;;;;17.64;100.00;98064.41;1223078;75;2928461;-68
2023/08/13 05:00:24;;;;;;;1.55;1.30;;;;;;;17.66;100.00;98068.16;1220985;75;2925585;-68
2023/08/13 05:02:56;;;;;;;1.60;1.25;;;;;;;17.77;100.00;98063.78;1223257;75;2927499;-68
2023/08/13 05:05:29;;;;;;;1.60;1.50;;;;;;;17.86;100.00;98064.25;1220836;75;2927810;-68
2023/08/13 05:08:01;;;;;;;1.40;1.25;;;;;;;17.96;100.00;98072.25;1223666;75;2924888;-68
2023/08/13 05:10:34;;;;;;;2.10;1.55;;;;;;;17.76;100.00;98065.06;1220398;75;2924021;-68
2023/08/13 05:13:10;;;;;;;1.40;1.30;;;;;;;18.01;100.00;98076.97;1223065;75;2926558;-69
2023/08/13 05:15:43;;;;;;;1.40;1.30;;;;;;;17.94;100.00;98074.78;1221751;75;2920649;-66
2023/08/13 05:18:15;;;;;;;1.95;1.55;;;;;;;18.19;100.00;98067.25;1222551;75;2945789;-66
2023/08/13 05:20:49;;;;;;;1.80;1.35;;;;;;;18.24;100.00;98061.66;1221761;75;2925589;-68
2023/08/13 05:23:22;;;;;;;2.15;1.40;;;;;;;18.39;100.00;98075.13;1223694;75;2916713;-67
2023/08/13 05:25:54;;;;;;;1.35;1.25;;;;;;;18.40;100.00;98079.41;1221204;75;2929400;-66
2023/08/13 05:28:29;;;;;;;3.05;1.70;;;;;;;18.50;100.00;98075.03;1222982;75;2923867;-70
2023/08/13 05:31:04;;;;;;;1.45;1.30;;;;;;;18.63;100.00;98090.25;1222350;75;2920294;-67
2023/08/13 05:33:37;;;;;;;1.80;1.70;;;;;;;18.62;100.00;98083.97;1221852;75;2970510;-67
2023/08/13 05:36:09;;;;;;;1.80;1.60;;;;;;;18.76;100.00;98081.28;1221456;75;2925229;-67
2023/08/13 05:38:42;;;;;;;3.45;2.80;;;;;;;18.49;100.00;98075.53;1223846;75;2935440;-68
2023/08/13 05:41:15;;;;;;;3.80;3.15;;;;;;;18.81;100.00;98086.81;1220766;75;2921778;-67
2023/08/13 05:43:50;;;;;;;2.45;2.25;;;;;;;18.86;100.00;98085.25;1223278;75;2929933;-66
2023/08/13 05:46:22;;;;;;;3.25;2.95;;;;;;;18.49;100.00;98078.31;1222067;75;2926276;-69
2023/08/13 05:48:55;;;;;;;3.95;3.30;;;;;;;18.65;100.00;98088.47;1224033;75;2923927;-67
2023/08/13 05:51:27;;;;;;;5.20;4.30;;;;;;;18.57;100.00;98084.00;1221764;75;2925406;-68
2023/08/13 05:54:00;;;;;;;5.15;4.50;;;;;;;18.70;100.00;98095.22;1223531;75;2924621;-67
2023/08/13 05:56:33;;;;;;;5.20;4.35;;;;;;;18.74;100.00;98088.13;1221719;75;2932360;-71
2023/08/13 05:59:08;;;;;;;4.55;4.15;;;;;;;18.99;100.00;98087.38;1222758;75;2921751;-69
2023/08/13 06:01:41;;;;;;;5.40;4.10;;;;;;;19.04;100.00;98089.31;1221404;75;2924581;-68
2023/08/13 06:04:13;;;;;;;3.80;3.50;;;;;;;19.27;100.00;98093.31;1223360;75;2924392;-69
2023/08/13 06:06:46;;;;;;;6.65;4.60;;;;;;;19.05;100.00;98097.13;1221404;75;2929205;-67
2023/08/13 06:09:18;;;;;;;4.95;4.45;;;;;;;19.21;100.00;98097.44;1223522;75;2923664;-68
2023/08/13 06:11:51;;;;;;;6.05;4.40;;;;;;;19.32;100.00;98094.53;1221001;75;2921916;-66
2023/08/13 06:14:27;;;;;;;6.70;5.85;;;;;;;19.64;100.00;98099.38;1223845;75;2919550;-68
2023/08/13 06:16:59;;;;;;;30.80;27.80;;;;;;;19.51;100.00;98092.50;1221903;75;2930386;-68
2023/08/13 06:19:32;;;;;;;10.95;9.85;;;;;;;19.73;100.00;98090.69;1223651;75;2922664;-68
2023/08/13 06:22:05;;;;;;;24.50;22.00;;;;;;;19.62;100.00;98094.34;1220398;75;2928559;-68
2023/08/13 06:24:37;;;;;;;11.10;10.05;;;;;;;20.04;100.00;98096.81;1219468;75;3027874;-69
2023/08/13 06:27:10;;;;;;;11.90;9.20;;;;;;;19.96;100.00;98097.41;1220638;75;2927163;-71
2023/08/13 06:29:46;;;;;;;9.50;8.10;;;;;;;20.09;100.00;98088.38;1223805;75;2927879;-68
2023/08/13 06:32:18;;;;;;;10.20;8.70;;;;;;;20.11;100.00;98091.38;1222341;75;2921655;-67
2023/08/13 06:34:51;;;;;;;6.20;5.25;;;;;;;20.07;100.00;98096.47;1223084;75;2928051;-68
2023/08/13 06:37:23;;;;;;;39.20;34.15;;;;;;;20.36;100.00;98091.94;1221522;75;2930775;-69
2023/08/13 06:39:56;;;;;;;35.75;31.95;;;;;;;20.59;100.00;98094.38;1222948;75;2926901;-69
2023/08/13 06:42:29;;;;;;;12.50;10.30;;;;;;;20.59;100.00;98094.38;1221578;75;2926621;-68
2023/08/13 06:45:04;;;;;;;6.15;5.55;;;;;;;20.94;100.00;98098.75;1224030;75;2925050;-69
2023/08/13 06:47:37;;;;;;;5.60;4.70;;;;;;;20.58;100.00;98090.06;1221535;75;2929698;-68
2023/08/13 06:50:11;;;;;;;6.70;4.40;;;;;;;20.77;100.00;98096.28;1223308;75;2928595;-68
2023/08/13 06:52:44;;;;;;;5.50;4.15;;;;;;;21.03;100.00;98098.31;1221812;75;2922226;-69
2023/08/13 06:55:16;;;;;;;4.80;4.30;;;;;;;20.85;100.00;98099.94;1223385;75;2919794;-70
2023/08/13 06:57:49;;;;;;;5.10;4.50;;;;;;;21.14;100.00;98108.47;1220703;75;2940347;-68
2023/08/13 07:00:24;;;;;;;4.85;4.15;;;;;;;21.24;100.00;98106.75;1223506;75;2924593;-68
2023/08/13 07:02:57;;;;;;;8.65;4.85;;;;;;;21.17;100.00;98106.66;1220741;75;2927720;-70
2023/08/13 07:05:30;;;;;;;6.95;5.10;;;;;;;21.41;100.00;98111.97;1223057;75;2927835;-67
2023/08/13 07:08:02;;;;;;;6.10;5.45;;;;;;;21.82;100.00;98112.63;1221837;75;2924231;-71
2023/08/13 07:10:35;;;;;;;6.25;5.25;;;;;;;21.76;100.00;98117.56;1223474;75;2935096;-67
2023/08/13 07:13:08;;;;;;;11.75;10.55;;;;;;;21.94;100.00;98124.25;1221186;75;2936205;-67
2023/08/13 07:15:44;;;;;;;6.55;5.35;;;;;;;21.74;100.00;98120.88;1224347;75;2925734;-69
2023/08/13 07:18:16;;;;;;;5.75;4.20;;;;;;;22.04;100.00;98114.88;1221431;75;2921006;-67
2023/08/13 07:20:49;;;;;;;7.15;6.45;;;;;;;22.44;100.00;98120.25;1223358;75;2928266;-69
2023/08/13 07:23:21;;;;;;;6.60;5.90;;;;;;;22.27;100.00;98122.69;1221875;75;2916655;-70
2023/08/13 07:25:54;;;;;;;4.55;4.10;;;;;;;22.77;100.00;98118.59;1223353;75;2932826;-70
2023/08/13 07:28:26;;;;;;;4.40;3.90;;;;;;;22.50;100.00;98117.31;1222352;75;2925159;-68
2023/08/13 07:31:03;;;;;;;4.10;3.55;;;;;;;22.83;100.00;98118.47;1223888;75;2928278;-68
2023/08/13 07:33:36;;;;;;;4.15;3.50;;;;;;;22.74;100.00;98119.72;1220908;75;2923087;-70
2023/08/13 07:36:09;;;;;;;5.05;4.10;;;;;;;22.71;98.93;98120.81;1222380;75;2939484;-69
2023/08/13 07:38:42;;;;;;;5.30;3.90;;;;;;;22.83;99.78;98117.72;1222458;75;2921687;-70
2023/08/13 07:41:14;;;;;;;3.95;3.55;;;;;;;23.04;99.96;98118.44;1223657;75;2927347;-68
2023/08/13 07:43:47;;;;;;;5.25;3.90;;;;;;;22.83;96.87;98114.94;1220923;75;2925544;-70
2023/08/13 07:46:22;;;;;;;4.05;3.40;;;;;;;23.25;97.08;98118.34;1222778;75;2928385;-69
2023/08/13 07:48:54;;;;;;;4.95;3.85;;;;;;;23.35;96.36;98116.50;1221075;75;2922383;-70
2023/08/13 07:51:27;;;;;;;4.40;3.65;;;;;;;23.56;99.83;98113.59;1223879;75;2921425;-74
2023/08/13 07:54:00;;;;;;;4.00;3.40;;;;;;;23.51;94.26;98111.00;1222041;75;2934771;-71
2023/08/13 07:56:32;;;;;;;5.35;3.70;;;;;;;23.66;94.10;98108.22;1224236;75;2923259;-68
2023/08/13 07:59:05;;;;;;;4.25;3.25;;;;;;;23.95;93.98;98106.06;1221625;75;2928676;-70
2023/08/13 08:01:40;;;;;;;5.40;4.10;;;;;;;23.65;97.46;98109.53;1223624;75;2929210;-70
2023/08/13 08:04:13;;;;;;;4.75;3.40;;;;;;;23.94;95.40;98101.78;1220222;75;2919022;-69
2023/08/13 08:06:46;;;;;;;3.85;3.05;;;;;;;24.32;93.80;98106.69;1223842;75;2942750;-69
2023/08/13 08:09:19;;;;;;;3.80;3.00;;;;;;;24.33;88.75;98110.94;1184962;75;5919638;-70
2023/08/13 08:11:51;;;;;;;3.50;3.10;;;;;;;24.15;94.07;98107.22;1224052;75;2925532;-69
2023/08/13 08:14:24;;;;;;;5.00;3.40;;;;;;;24.26;90.35;98099.75;1221603;75;2929846;-68
2023/08/13 08:17:04;;;;;;;3.40;2.95;;;;;;;24.80;86.96;98101.22;1220166;75;3115166;-69
2023/08/13 08:19:37;;;;;;;2.90;2.60;;;;;;;24.65;85.84;98104.03;1221553;75;2928298;-70
2023/08/13 08:22:10;;;;;;;4.15;3.60;;;;;;;24.94;84.26;98101.75;1223129;75;2922630;-70
2023/08/13 08:24:42;;;;;;;4.55;3.25;;;;;;;24.75;82.88;98093.00;1221652;75;2924432;-69
2023/08/13 08:27:15;;;;;;;4.05;3.10;;;;;;;25.10;80.92;98102.44;1223118;75;2924401;-70
2023/08/13 08:29:47;;;;;;;4.55;3.15;;;;;;;25.15;82.72;98109.16;1221200;75;2922661;-70
2023/08/13 08:32:23;;;;;;;3.65;3.30;;;;;;;25.16;78.14;98107.84;1223700;75;2927425;-71
2023/08/13 08:34:55;;;;;;;3.50;2.80;;;;;;;25.41;76.90;98097.50;1221952;75;2927241;-70
2023/08/13 08:37:28;;;;;;;3.75;3.25;;;;;;;25.39;78.09;98102.19;1223445;75;2923584;-69
2023/08/13 08:40:01;;;;;;;4.55;3.50;;;;;;;25.46;75.93;98102.13;1222506;75;2929679;-67
2023/08/13 08:42:34;;;;;;;15.60;13.65;;;;;;;25.80;72.39;98098.03;1222971;75;2931578;-68
2023/08/13 08:45:10;;;;;;;10.80;9.20;;;;;;;25.83;73.85;98091.28;1219487;75;3083737;-67
2023/08/13 08:47:47;;;;;;;5.20;3.95;;;;;;;25.55;75.64;98098.00;1223190;75;2921782;-71
2023/08/13 08:50:21;;;;;;;3.60;3.00;;;;;;;26.47;72.65;98094.53;1221320;75;2924033;-68
2023/08/13 08:52:55;;;;;;;3.15;2.85;;;;;;;26.59;72.73;98096.91;1222203;75;2924156;-69
2023/08/13 08:55:27;;;;;;;3.25;2.40;;;;;;;26.40;75.19;98092.56;1218429;75;3013589;-69
2023/08/13 08:58:00;;;;;;;4.45;3.30;;;;;;;25.82;74.84;98083.44;1222640;75;2921227;-68
2023/08/13 09:00:33;;;;;;;3.35;2.85;;;;;;;26.34;74.96;98084.38;1221669;75;2924932;-66
2023/08/13 09:03:09;;;;;;;3.50;2.75;;;;;;;26.44;74.74;98090.09;1222386;75;2926147;-70
2023/08/13 09:05:42;;;;;;;3.25;2.70;;;;;;;26.42;73.06;98081.50;1222286;75;2929774;-69
2023/08/13 09:08:15;;;;;;;3.75;3.20;;;;;;;26.64;71.37;98077.00;1222624;75;2924228;-69
2023/08/13 09:10:48;;;;;;;3.15;2.80;;;;;;;26.70;69.57;98080.31;1221081;75;2923454;-67
2023/08/13 09:13:21;;;;;;;3.20;2.80;;;;;;;26.84;71.61;98083.53;1220173;75;2920692;-69
2023/08/13 09:15:56;;;;;;;4.30;2.75;;;;;;;26.74;71.03;98075.03;1224520;75;2851615;-69
2023/08/13 09:18:41;;;;;;;4.10;2.90;;;;;;;26.43;70.94;98079.44;1222825;75;2924192;-68
2023/08/13 09:21:14;;;;;;;3.30;2.65;;;;;;;27.27;70.67;98072.19;1222909;75;2919869;-68
2023/08/13 09:23:47;;;;;;;3.30;2.85;;;;;;;27.25;69.48;98055.94;1221084;75;2956805;-71
2023/08/13 09:26:20;;;;;;;4.10;2.60;;;;;;;27.24;68.12;98065.69;1221707;75;2923926;-68
2023/08/13 09:28:53;;;;;;;4.00;2.95;;;;;;;27.46;66.57;98055.44;1222822;75;2920151;-69
2023/08/13 09:31:28;;;;;;;4.00;3.60;;;;;;;27.63;70.23;98060.28;1222341;75;2922998;-70
2023/08/13 09:34:04;;;;;;;8.30;7.45;;;;;;;27.82;68.00;98062.44;1221864;75;2921495;-70
2023/08/13 09:36:36;;;;;;;5.90;4.45;;;;;;;27.89;68.79;98066.50;1223291;75;2927339;-68
2023/08/13 09:39:10;;;;;;;3.30;2.90;;;;;;;27.76;68.10;98065.53;1222100;75;2919803;-68
2023/08/13 09:41:43;;;;;;;3.05;2.40;;;;;;;28.12;66.41;98064.06;1222430;75;2958043;-68
2023/08/13 09:44:17;;;;;;;3.15;2.75;;;;;;;27.96;65.80;98069.19;1223373;75;2926640;-66
2023/08/13 09:46:55;;;;;;;3.25;2.55;;;;;;;27.61;66.97;98063.69;1222399;75;2919892;-69
2023/08/13 09:49:32;;;;;;;;;;;;;;;28.42;66.36;98065.59;1222636;75;2925452;-69
2023/08/13 09:52:11;;;;;;;2.85;2.55;;;;;;;28.60;63.98;98066.28;1222751;75;2921921;-66
2023/08/13 09:54:50;;;;;;;4.00;2.90;;;;;;;28.76;64.54;98068.78;1222659;75;2928320;-68
2023/08/13 09:57:25;;;;;;;5.00;2.75;;;;;;;28.80;65.64;98064.19;1223143;75;2924579;-69
2023/08/13 09:59:59;;;;;;;3.25;2.40;;;;;;;29.00;64.94;98062.13;1220558;75;2927082;-67
2023/08/13 10:02:32;;;;;;;2.70;2.45;;;;;;;29.17;63.96;98060.50;1223470;75;2925115;-68
2023/08/13 10:05:09;;;;;;;2.45;2.25;;;;;;;29.21;63.55;98055.16;1222007;75;2928501;-69
2023/08/13 10:07:43;;;;;;;2.80;2.30;;;;;;;29.43;63.70;98062.38;1223701;75;2923471;-68
2023/08/13 10:10:16;;;;;;;3.95;2.80;;;;;;;29.38;64.02;98063.44;1221128;75;2947628;-70
2023/08/13 10:12:49;;;;;;;3.35;2.95;;;;;;;29.22;64.45;98063.00;1223664;75;2929446;-69
2023/08/13 10:15:24;;;;;;;3.45;2.55;;;;;;;29.64;63.28;98070.19;1222503;75;2921334;-70
2023/08/13 10:17:56;;;;;;;3.45;2.90;;;;;;;30.10;62.35;98055.03;1224136;75;2925884;-69
2023/08/13 10:20:32;;;;;;;4.45;3.20;;;;;;;30.40;60.63;98057.72;1221402;75;2929662;-69
2023/08/13 10:23:07;;;;;;;3.50;2.80;;;;;;;30.93;58.99;98052.72;1222043;75;2924587;-68
2023/08/13 10:25:41;;;;;;;6.90;5.40;;;;;;;31.47;57.57;98059.69;1221369;75;2930215;-70
2023/08/13 10:28:30;;;;;;;3.90;2.85;;;;;;;31.99;57.06;98055.81;1223730;75;2921211;-67
2023/08/13 10:31:32;;;;;;;3.80;2.45;;;;;;;31.53;58.39;98054.41;1221647;75;2927472;-68
2023/08/13 10:34:14;;;;;;;3.65;2.85;;;;;;;30.62;59.28;98058.44;1223639;75;2919483;-68
2023/08/13 10:36:54;;;;;;;2.55;2.30;;;;;;;31.13;54.74;98056.88;1222851;75;2930120;-69
2023/08/13 10:39:40;;;;;;;2.50;2.30;;;;;;;31.40;55.79;98053.66;1222267;75;2921999;-66
2023/08/13 10:42:50;;;;;;;2.40;2.10;;;;;;;31.75;54.88;98055.81;1222773;75;2925007;-67
2023/08/13 10:45:24;;;;;;;2.70;2.15;;;;;;;31.97;53.83;98053.63;1222631;75;2920074;-68
2023/08/13 10:48:00;;;;;;;2.50;2.10;;;;;;;31.98;53.19;98048.69;1223237;75;2931042;-68
2023/08/13 10:50:36;;;;;;;3.30;2.00;;;;;;;31.92;52.57;98046.22;1222644;75;2923123;-69
2023/08/13 10:53:13;;;;;;;1.80;1.65;;;;;;;32.42;52.09;98047.03;1223329;75;2929697;-72
2023/08/13 10:55:48;;;;;;;3.40;2.10;;;;;;;32.08;53.10;98052.13;1221708;75;2928031;-70
2023/08/13 10:58:29;;;;;;;3.60;2.10;;;;;;;32.28;51.12;98041.28;1223679;75;2923090;-69
2023/08/13 11:01:03;;;;;;;4.35;2.60;;;;;;;31.39;53.09;98035.22;1222446;75;2921994;-69
2023/08/13 11:03:35;;;;;;;2.00;1.50;;;;;;;33.00;52.31;98046.13;1222993;75;2922601;-70
2023/08/13 11:06:10;;;;;;;2.40;1.70;;;;;;;33.17;50.09;98035.69;1221713;75;2929959;-69
2023/08/13 11:08:49;;;;;;;3.05;2.30;;;;;;;32.93;50.28;98046.41;1223987;75;2923277;-72
2023/08/13 11:11:22;;;;;;;2.90;2.00;;;;;;;33.03;49.97;98038.47;1222479;75;2925455;-69
2023/08/13 11:13:56;;;;;;;2.65;2.15;;;;;;;33.22;49.13;98038.16;1223435;75;2917305;-71
2023/08/13 11:16:31;;;;;;;2.50;1.80;;;;;;;33.66;48.90;98035.56;1221541;75;2923962;-71
2023/08/13 11:19:07;;;;;;;5.15;3.25;;;;;;;32.82;49.62;98025.25;1224335;75;2922830;-70
2023/08/13 11:21:39;;;;;;;4.25;2.20;;;;;;;32.56;51.22;98030.16;1221646;75;2922060;-71
2023/08/13 11:24:17;;;;;;;12.10;9.15;;;;;;;32.86;50.34;98031.88;1224118;75;2921198;-71
2023/08/13 11:26:51;;;;;;;6.50;4.70;;;;;;;32.31;50.34;98030.81;1223456;75;2921897;-70
2023/08/13 11:29:24;;;;;;;5.45;4.95;;;;;;;33.09;49.56;98036.72;1222803;75;2924308;-71
2023/08/13 11:31:57;;;;;;;2.80;2.15;;;;;;;32.53;50.23;98042.72;1222580;75;2916980;-66
2023/08/13 11:34:30;;;;;;;3.50;2.75;;;;;;;32.34;51.16;98035.22;1221893;75;2927311;-71
2023/08/13 11:37:03;;;;;;;7.95;7.15;;;;;;;32.31;52.42;98028.69;1223502;75;2926750;-69
2023/08/13 11:39:38;;;;;;;3.25;2.35;;;;;;;31.96;51.28;98029.47;1221967;75;2923639;-67
2023/08/13 11:42:11;;;;;;;3.05;2.55;;;;;;;32.47;51.17;98028.91;1223118;75;2920716;-71